Time;durP1;ratioP1;P1;durP2;ratioP2;P2;SDS_P1;SDS_P2;PMS_P1;PMS_P2;Temp;Humidity;BMP_temperature;BMP_pressure;BME280_temperature;BME280_humidity;BME280_pressure;Samples;Min_cycle;Max_cycle;Signal;HPM_P1;HPM_P2
2021/08/25 00:00:20;;;;;;;3.45;1.35;;;;;;;;;;6070614;23;20021;-89
2021/08/25 00:02:46;;;;;;;2.58;1.95;;;;;;;;;;6071241;23;20002;-89
2021/08/25 00:05:12;;;;;;;1.33;0.88;;;;;;;;;;6072746;23;20018;-89
2021/08/25 00:07:38;;;;;;;3.78;1.52;;;;;;;;;;6098281;23;20007;-89
2021/08/25 00:10:05;;;;;;;4.20;0.88;;;;;;;;;;6097959;23;20021;-89
2021/08/25 00:12:31;;;;;;;1.70;1.00;;;;;;;;;;6097505;23;20026;-90
2021/08/25 00:14:57;;;;;;;1.10;0.85;;;;;;;;;;6098241;23;20002;-89
2021/08/25 00:17:23;;;;;;;1.70;1.17;;;;;;;;;;6097704;23;20085;-90
2021/08/25 00:19:49;;;;;;;1.33;0.80;;;;;;;;;;6097978;23;20663;-90
2021/08/25 00:22:15;;;;;;;2.00;1.10;;;;;;;;;;6097473;23;20010;-90
2021/08/25 00:24:42;;;;;;;1.23;0.95;;;;;;;;;;6097531;23;20006;-88
2021/08/25 00:27:08;;;;;;;2.70;1.30;;;;;;;;;;6097390;23;20006;-90
2021/08/25 00:29:34;;;;;;;1.98;1.05;;;;;;;;;;6097173;23;20014;-90
2021/08/25 00:32:01;;;;;;;1.55;1.42;;;;;;;;;;6098208;23;20026;-89
2021/08/25 00:34:27;;;;;;;0.87;0.87;;;;;;;;;;6072402;23;20601;-91
2021/08/25 00:36:53;;;;;;;2.08;1.20;;;;;;;;;;6097626;23;20241;-90
2021/08/25 00:39:19;;;;;;;1.10;1.00;;;;;;;;;;6072717;23;20089;-91
2021/08/25 00:41:45;;;;;;;4.20;1.35;;;;;;;;;;6097176;23;20010;-90
2021/08/25 00:44:12;;;;;;;2.42;1.23;;;17.10;65.90;;;;;;6072275;23;20599;-89
2021/08/25 00:46:39;;;;;;;1.98;1.15;;;;;;;;;;6096284;23;20018;-91
2021/08/25 00:49:05;;;;;;;1.50;1.40;;;;;;;;;;6072279;23;20102;-90
2021/08/25 00:51:31;;;;;;;1.67;1.52;;;;;;;;;;6097965;23;20010;-90
2021/08/25 00:53:58;;;;;;;4.75;1.65;;;17.00;66.70;;;;;;6072344;23;20002;-91
2021/08/25 00:56:24;;;;;;;1.75;1.45;;;;;;;;;;6097252;23;20003;-89
2021/08/25 00:58:53;;;;;;;3.92;1.52;;;;;;;;;;6072434;23;20002;-89
2021/08/25 01:01:35;;;;;;;3.85;1.30;;;16.90;66.50;;;;;;6072169;23;20505;-90
2021/08/25 01:04:07;;;;;;;1.52;1.10;;;;;;;;;;6097599;23;20013;-91
2021/08/25 01:06:34;;;;;;;1.40;1.00;;;;;;;;;;6097857;23;20334;-90
2021/08/25 01:09:02;;;;;;;1.25;1.15;;;16.90;66.70;;;;;;6097862;23;20010;-90
2021/08/25 01:11:29;;;;;;;1.55;1.02;;;;;;;;;;6097001;23;20015;-90
2021/08/25 01:13:55;;;;;;;2.92;1.15;;;;;;;;;;6097175;23;19998;-90
2021/08/25 01:16:22;;;;;;;4.40;2.05;;;17.00;65.70;;;;;;6071850;23;20003;-90
2021/08/25 01:18:48;;;;;;;1.10;0.90;;;;;;;;;;6072230;23;20037;-89
2021/08/25 01:21:15;;;;;;;2.20;2.00;;;;;;;;;;6071757;23;20018;-89
2021/08/25 01:23:44;;;;;;;4.37;1.50;;;16.80;67.80;;;;;;6072042;23;20082;-89
2021/08/25 01:26:10;;;;;;;6.43;1.38;;;;;;;;;;6097496;23;20330;-90
2021/08/25 01:28:40;;;;;;;1.10;1.00;;;;;;;;;;6071968;23;20018;-91
2021/08/25 01:31:06;;;;;;;3.97;2.30;;;;;;;;;;6096737;23;20461;-89
2021/08/25 01:33:32;;;;;;;1.33;0.85;;;;;;;;;;6097130;23;20087;-90
2021/08/25 01:35:58;;;;;;;2.35;1.30;;;;;;;;;;6072271;23;20002;-90
2021/08/25 01:38:46;;;;;;;2.65;1.23;;;16.60;66.90;;;;;;6096903;23;20077;-89
2021/08/25 01:41:12;;;;;;;1.00;0.90;;;;;;;;;;6095658;23;20014;-90
2021/08/25 01:43:38;;;;;;;1.33;1.02;;;;;;;;;;6071857;23;20516;-92
2021/08/25 01:46:04;;;;;;;1.92;1.05;;;;;;;;;;6072548;23;20010;-89
2021/08/25 01:48:31;;;;;;;1.98;1.00;;;;;;;;;;6072383;23;20014;-89
2021/08/25 01:50:57;;;;;;;1.63;0.90;;;;;;;;;;6097142;23;20514;-91
2021/08/25 01:53:23;;;;;;;0.80;0.65;;;;;;;;;;6097216;23;20171;-90
2021/08/25 01:55:49;;;;;;;0.82;0.82;;;;;;;;;;6097106;23;20016;-89
2021/08/25 01:58:15;;;;;;;1.63;0.85;;;;;;;;;;6096609;23;20062;-90
2021/08/25 02:00:41;;;;;;;1.00;0.68;;;;;;;;;;6071727;23;20010;-89
2021/08/25 02:03:07;;;;;;;1.38;1.27;;;;;;;;;;6071895;23;20003;-90
2021/08/25 02:05:33;;;;;;;1.27;0.85;;;;;;;;;;6096990;23;20017;-90
2021/08/25 02:07:59;;;;;;;1.83;1.73;;;;;;;;;;6071682;23;20002;-89
2021/08/25 02:10:25;;;;;;;3.60;1.35;;;;;;;;;;6096482;23;20347;-89
2021/08/25 02:12:51;;;;;;;1.25;0.95;;;;;;;;;;6071982;23;20010;-90
2021/08/25 02:15:16;;;;;;;2.08;1.23;;;;;;;;;;6097338;23;20010;-91
2021/08/25 02:17:42;;;;;;;0.85;0.77;;;;;;;;;;6071229;23;20015;-91
2021/08/25 02:20:09;;;;;;;2.38;0.80;;;;;;;;;;6096891;23;20003;-91
2021/08/25 02:22:35;;;;;;;1.67;1.27;;;;;;;;;;6096423;23;20144;-91
2021/08/25 02:25:01;;;;;;;1.25;1.00;;;;;;;;;;6071622;23;20076;-90
2021/08/25 02:27:27;;;;;;;7.30;1.00;;;;;;;;;;6096860;23;20079;-92
2021/08/25 02:29:55;;;;;;;0.82;0.80;;;;;;;;;;6096629;23;20071;-91
2021/08/25 02:32:23;;;;;;;1.73;1.10;;;15.90;66.90;;;;;;6097000;23;20065;-89
2021/08/25 02:34:49;;;;;;;2.88;1.33;;;;;;;;;;6097266;23;20098;-90
2021/08/25 02:37:15;;;;;;;2.03;1.48;;;;;;;;;;6071222;23;20042;-90
2021/08/25 02:39:41;;;;;;;2.75;1.67;;;;;;;;;;6097091;23;20018;-90
2021/08/25 02:42:07;;;;;;;5.97;0.90;;;;;;;;;;6096710;23;20041;-89
2021/08/25 02:44:33;;;;;;;1.42;1.00;;;;;;;;;;6071453;23;20009;-90
2021/08/25 02:46:59;;;;;;;1.00;0.90;;;;;;;;;;6071733;23;20011;-90
2021/08/25 02:49:25;;;;;;;2.28;1.08;;;;;;;;;;6071002;23;20007;-90
2021/08/25 02:51:51;;;;;;;2.03;1.60;;;;;;;;;;6071031;23;20018;-89
2021/08/25 02:54:16;;;;;;;1.63;0.90;;;;;;;;;;6071490;23;20006;-91
2021/08/25 02:56:42;;;;;;;1.95;0.98;;;;;;;;;;6071153;23;20034;-90
2021/08/25 02:59:08;;;;;;;1.30;1.10;;;;;;;;;;6071363;23;20010;-90
2021/08/25 03:01:34;;;;;;;2.60;1.58;;;;;;;;;;6070544;23;20006;-88
2021/08/25 03:04:00;;;;;;;1.92;1.27;;;;;;;;;;6096357;23;19999;-88
2021/08/25 03:06:26;;;;;;;1.77;1.35;;;;;;;;;;6070447;23;20017;-90
2021/08/25 03:08:52;;;;;;;2.58;1.40;;;;;;;;;;6071328;23;20006;-91
2021/08/25 03:11:18;;;;;;;3.72;1.35;;;;;;;;;;6095966;23;20021;-90
2021/08/25 03:13:44;;;;;;;2.58;1.60;;;;;;;;;;6096555;23;20007;-88
2021/08/25 03:16:10;;;;;;;1.85;0.93;;;;;;;;;;6071036;23;20006;-90
2021/08/25 03:18:37;;;;;;;1.90;1.23;;;;;;;;;;6070860;23;20011;-89
2021/08/25 03:21:03;;;;;;;0.93;0.85;;;;;;;;;;6096549;23;20002;-89
2021/08/25 03:23:29;;;;;;;2.05;0.98;;;;;;;;;;6070780;23;20010;-89
2021/08/25 03:25:55;;;;;;;3.22;1.27;;;;;;;;;;6096497;23;20003;-91
2021/08/25 03:28:21;;;;;;;2.40;1.00;;;;;;;;;;6096400;23;20569;-89
2021/08/25 03:30:47;;;;;;;1.25;1.15;;;;;;;;;;6070847;23;20018;-90
2021/08/25 03:33:13;;;;;;;2.65;1.33;;;;;;;;;;6096327;23;20050;-89
2021/08/25 03:35:39;;;;;;;2.47;1.60;;;;;;;;;;6096533;23;20007;-90
2021/08/25 03:38:05;;;;;;;2.05;1.40;;;;;;;;;;6070518;23;20418;-89
2021/08/25 03:40:31;;;;;;;2.25;2.00;;;;;;;;;;6096179;23;20045;-90
2021/08/25 03:42:57;;;;;;;2.88;1.33;;;;;;;;;;6071054;23;20346;-90
2021/08/25 03:45:23;;;;;;;2.10;1.13;;;;;;;;;;6070700;23;20010;-90
2021/08/25 03:47:49;;;;;;;4.88;1.13;;;;;;;;;;6071003;23;20005;-90
2021/08/25 03:50:15;;;;;;;1.20;1.10;;;;;;;;;;6070427;23;20065;-89
2021/08/25 03:52:41;;;;;;;2.45;1.30;;;;;;;;;;6071074;23;20015;-89
2021/08/25 03:55:07;;;;;;;2.72;1.58;;;;;;;;;;6070403;23;20013;-89
2021/08/25 03:57:33;;;;;;;3.95;2.13;;;;;;;;;;6095954;23;20452;-90
2021/08/25 03:59:59;;;;;;;1.83;0.80;;;;;;;;;;6071173;23;20038;-90
2021/08/25 04:02:25;;;;;;;2.55;1.10;;;;;;;;;;6070425;23;20006;-90
2021/08/25 04:04:52;;;;;;;1.67;0.98;;;;;;;;;;6070682;23;20010;-91
2021/08/25 04:07:18;;;;;;;1.92;1.50;;;;;;;;;;6096195;23;20013;-89
2021/08/25 04:09:44;;;;;;;1.90;1.08;;;;;;;;;;6095988;23;20006;-90
2021/08/25 04:12:09;;;;;;;1.88;1.23;;;;;;;;;;6095628;23;20014;-90
2021/08/25 04:14:36;;;;;;;1.77;1.60;;;;;;;;;;6071065;23;20003;-89
2021/08/25 04:17:02;;;;;;;2.25;1.52;;;;;;;;;;6096599;23;20010;-89
2021/08/25 04:19:28;;;;;;;2.83;1.67;;;;;;;;;;6070760;23;20079;-90
2021/08/25 04:21:54;;;;;;;3.50;1.50;;;;;;;;;;6096410;23;20002;-89
2021/08/25 04:24:20;;;;;;;4.88;1.13;;;;;;;;;;6096194;23;20011;-90
2021/08/25 04:26:46;;;;;;;3.05;1.48;;;;;;;;;;6071029;23;20088;-89
2021/08/25 04:29:12;;;;;;;1.25;1.10;;;;;;;;;;6096172;23;20105;-91
2021/08/25 04:31:38;;;;;;;3.15;1.88;;;;;;;;;;6070405;23;20114;-90
2021/08/25 04:34:04;;;;;;;2.03;1.42;;;;;;;;;;6070405;23;20005;-90
2021/08/25 04:36:30;;;;;;;2.10;1.40;;;;;;;;;;6096658;23;20011;-88
2021/08/25 04:38:56;;;;;;;1.73;1.10;;;;;;;;;;6093016;23;20081;-90
2021/08/25 04:41:22;;;;;;;1.90;1.40;;;;;;;;;;6069742;23;20584;-88
2021/08/25 04:43:48;;;;;;;1.35;1.23;;;;;;;;;;6095403;23;20034;-91
2021/08/25 04:46:17;;;;;;;1.50;1.05;;;;;;;;;;6069047;23;20014;-90
2021/08/25 04:48:43;;;;;;;1.20;1.10;;;;;;;;;;6094927;23;20058;-92
2021/08/25 04:51:11;;;;;;;1.58;1.20;;;;;;;;;;6097075;23;20018;-90
2021/08/25 04:53:37;;;;;;;3.00;1.63;;;;;;;;;;6095505;23;20081;-91
2021/08/25 04:56:03;;;;;;;1.63;1.52;;;;;;;;;;6096676;23;20038;-89
2021/08/25 04:58:29;;;;;;;2.53;1.17;;;;;;;;;;6071664;23;20022;-87
2021/08/25 05:00:55;;;;;;;2.55;1.95;;;;;;;;;;6095090;23;20006;-87
2021/08/25 05:03:21;;;;;;;2.33;1.58;;;;;;;;;;6095411;23;20010;-90
2021/08/25 05:05:47;;;;;;;1.83;1.25;;;;;;;;;;6096623;23;20338;-89
2021/08/25 05:08:13;;;;;;;2.13;1.35;;;;;;;;;;6096253;23;20006;-89
2021/08/25 05:10:39;;;;;;;2.17;1.80;;;;;;;;;;6092591;23;20014;-80
2021/08/25 05:13:05;;;;;;;22.63;3.47;;;;;;;;;;6066742;23;20002;-81
2021/08/25 05:15:31;;;;;;;2.05;1.38;;;;;;;;;;6092253;23;20093;-81
2021/08/25 05:17:57;;;;;;;2.85;1.48;;;;;;;;;;6092456;23;20010;-82
2021/08/25 05:20:23;;;;;;;1.50;1.27;;;;;;;;;;6092204;23;20016;-82
2021/08/25 05:22:50;;;;;;;2.13;1.30;;;;;;;;;;6091998;23;20020;-82
2021/08/25 05:25:16;;;;;;;1.63;1.52;;;;;;;;;;6092361;23;20009;-82
2021/08/25 05:27:42;;;;;;;2.35;1.75;;;;;;;;;;6092088;23;20073;-82
2021/08/25 05:30:08;;;;;;;2.08;1.00;;;;;;;;;;6091450;23;20620;-83
2021/08/25 05:32:34;;;;;;;3.28;1.30;;;;;;;;;;6067038;23;20010;-86
2021/08/25 05:35:00;;;;;;;3.72;1.33;;;;;;;;;;6067312;23;20176;-85
2021/08/25 05:37:26;;;;;;;3.35;1.58;;;;;;;;;;6065689;23;20021;-86
2021/08/25 05:39:52;;;;;;;2.15;1.77;;;;;;;;;;6091804;23;20434;-85
2021/08/25 05:42:18;;;;;;;2.13;1.65;;;;;;;;;;6093004;23;20002;-85
2021/08/25 05:44:44;;;;;;;2.03;1.83;;;;;;;;;;6092985;23;20065;-85
2021/08/25 05:47:10;;;;;;;4.88;1.98;;;;;;;;;;6092114;23;20011;-83
2021/08/25 05:49:37;;;;;;;2.05;1.58;;;;;;;;;;6092547;23;20026;-86
2021/08/25 05:52:03;;;;;;;2.92;2.22;;;;;;;;;;6093406;23;20049;-86
2021/08/25 05:54:29;;;;;;;1.77;1.42;;;;;;;;;;6067566;23;20021;-87
2021/08/25 05:56:55;;;;;;;4.75;1.60;;;;;;;;;;6067923;23;20029;-84
2021/08/25 05:59:21;;;;;;;13.85;4.22;;;;;;;;;;6093073;23;20053;-86
2021/08/25 06:01:47;;;;;;;2.03;1.50;;;;;;;;;;6066288;23;20037;-86
2021/08/25 06:04:13;;;;;;;2.55;1.48;;;;;;;;;;6093022;23;20470;-85
2021/08/25 06:06:39;;;;;;;7.38;1.90;;;;;;;;;;6092709;23;20086;-84
2021/08/25 06:09:05;;;;;;;1.30;1.20;;;;;;;;;;6091663;23;20078;-85
2021/08/25 06:11:31;;;;;;;1.30;1.15;;;;;;;;;;6092456;23;20014;-87
2021/08/25 06:13:57;;;;;;;2.70;2.03;;;;;;;;;;6066881;23;20354;-85
2021/08/25 06:16:23;;;;;;;2.28;1.75;;;;;;;;;;6066385;23;20015;-85
2021/08/25 06:18:49;;;;;;;3.30;1.92;;;;;;;;;;6066686;23;20014;-87
2021/08/25 06:21:18;;;;;;;4.63;1.40;;;16.50;65.50;;;;;;6093481;23;20030;-86
2021/08/25 06:23:44;;;;;;;4.25;1.38;;;16.50;66.10;;;;;;6091014;23;20532;-85
2021/08/25 06:26:11;;;;;;;2.00;1.47;;;;;;;;;;6092497;23;20002;-86
2021/08/25 06:28:37;;;;;;;2.58;1.55;;;;;;;;;;6092126;23;20450;-86
2021/08/25 06:31:03;;;;;;;2.35;1.40;;;;;;;;;;6091536;23;20018;-85
2021/08/25 06:33:29;;;;;;;5.07;1.70;;;;;;;;;;6091854;23;20769;-84
2021/08/25 06:35:55;;;;;;;2.35;1.85;;;;;;;;;;6092692;23;20030;-86
2021/08/25 06:38:21;;;;;;;2.60;1.92;;;;;;;;;;6090743;23;20049;-85
2021/08/25 06:40:47;;;;;;;2.05;1.63;;;;;;;;;;6091939;23;20017;-85
2021/08/25 06:43:13;;;;;;;2.47;1.70;;;;;;;;;;6092323;23;20026;-86
2021/08/25 06:45:39;;;;;;;3.40;1.63;;;;;;;;;;6091419;23;20010;-85
2021/08/25 06:48:05;;;;;;;5.28;2.03;;;;;;;;;;6091889;23;20054;-85
2021/08/25 06:50:31;;;;;;;3.75;2.47;;;;;;;;;;6092032;23;20025;-86
2021/08/25 06:52:57;;;;;;;3.17;1.70;;;;;;;;;;6091888;23;20010;-83
2021/08/25 06:55:23;;;;;;;2.38;1.52;;;;;;;;;;6092007;23;20099;-85
2021/08/25 06:57:49;;;;;;;1.70;1.17;;;;;;;;;;6092492;23;20446;-88
2021/08/25 07:00:15;;;;;;;3.60;1.20;;;;;;;;;;6091662;23;20007;-87
2021/08/25 07:02:41;;;;;;;2.90;1.80;;;;;;;;;;6066224;23;20127;-87
2021/08/25 07:05:08;;;;;;;1.30;0.88;;;;;;;;;;6092433;23;20093;-86
2021/08/25 07:07:34;;;;;;;2.47;1.07;;;;;;;;;;6091611;23;20394;-83
2021/08/25 07:10:00;;;;;;;2.35;1.30;;;28.70;38.30;;;;;;6064077;23;20049;-82
2021/08/25 07:12:26;;;;;;;2.83;1.30;;;;;;;;;;6090899;23;20006;-83
2021/08/25 07:14:53;;;;;;;1.65;1.02;;;;;;;;;;6091075;23;20012;-83
2021/08/25 07:17:19;;;;;;;;;;;29.20;36.30;;;;;;6066701;23;20007;-83
2021/08/25 07:19:45;;;;;;;2.23;1.23;;;;;;;;;;6090766;23;20348;-83
2021/08/25 07:22:11;;;;;;;4.25;1.48;;;;;;;;;;6090752;23;20011;-83
2021/08/25 07:24:37;;;;;;;1.63;1.20;;;30.20;35.80;;;;;;6091585;23;20014;-82
2021/08/25 07:27:03;;;;;;;1.67;1.20;;;;;;;;;;6091750;23;20007;-83
2021/08/25 07:29:29;;;;;;;3.10;1.40;;;;;;;;;;6090532;23;20018;-83
2021/08/25 07:31:55;;;;;;;2.83;1.15;;;;;;;;;;6090913;23;20373;-82
2021/08/25 07:34:21;;;;;;;1.70;1.02;;;;;;;;;;6065589;23;20093;-83
2021/08/25 07:36:47;;;;;;;1.65;1.10;;;;;;;;;;6091265;23;20037;-83
2021/08/25 07:39:13;;;;;;;3.35;1.20;;;;;;;;;;6090519;23;20366;-82
2021/08/25 07:41:39;;;;;;;2.65;1.45;;;;;;;;;;6090704;23;20066;-82
2021/08/25 07:44:07;;;;;;;1.95;1.08;;;31.40;33.20;;;;;;6064957;23;20003;-82
2021/08/25 07:46:33;;;;;;;2.25;1.48;;;;;;;;;;6089931;23;20586;-84
2021/08/25 07:49:03;;;;;;;2.63;1.58;;;31.30;33.80;;;;;;6065316;23;20006;-84
2021/08/25 07:51:29;;;;;;;1.63;0.90;;;;;;;;;;6088254;23;20018;-83
2021/08/25 07:53:55;;;;;;;3.15;1.30;;;;;;;;;;6091452;23;20003;-82
2021/08/25 07:56:21;;;;;;;4.68;1.42;;;;;;;;;;6090991;23;20006;-83
2021/08/25 07:58:47;;;;;;;3.53;1.58;;;;;;;;;;6064523;23;20053;-83
2021/08/25 08:01:13;;;;;;;2.80;1.10;;;;;;;;;;6091503;23;20014;-83
2021/08/25 08:03:39;;;;;;;2.53;1.30;;;;;;;;;;6091467;23;20010;-83
2021/08/25 08:06:06;;;;;;;3.17;1.63;;;;;;;;;;6090877;23;20303;-82
2021/08/25 08:08:32;;;;;;;1.97;1.57;;;;;;;;;;6091251;23;20226;-82
2021/08/25 08:10:57;;;;;;;2.57;1.37;;;;;;;;;;6091042;23;20014;-82
2021/08/25 08:13:24;;;;;;;1.45;0.70;;;;;;;;;;6091021;23;20030;-83
2021/08/25 08:15:50;;;;;;;2.10;1.07;;;;;;;;;;6091770;23;20441;-83
2021/08/25 08:18:20;;;;;;;2.10;1.07;;;;;;;;;;6065663;23;20002;-83
2021/08/25 08:20:49;;;;;;;2.95;1.08;;;;;;;;;;6091133;23;20243;-83
2021/08/25 08:23:16;;;;;;;3.58;1.08;;;;;;;;;;6091558;23;20077;-83
2021/08/25 08:25:41;;;;;;;2.28;1.05;;;;;;;;;;6067438;23;20450;-84
2021/08/25 08:28:07;;;;;;;3.43;1.00;;;;;;;;;;6092565;23;20002;-83
2021/08/25 08:30:33;;;;;;;2.00;0.93;;;;;;;;;;6093178;23;20021;-84
2021/08/25 08:33:00;;;;;;;2.73;1.17;;;;;;;;;;6093359;23;20721;-83
2021/08/25 08:35:25;;;;;;;2.83;2.08;;;;;;;;;;6092886;23;20074;-83
2021/08/25 08:37:51;;;;;;;3.50;1.60;;;;;;;;;;6093239;23;20014;-83
2021/08/25 08:40:17;;;;;;;3.00;0.93;;;;;;;;;;6092257;23;19998;-84
2021/08/25 08:42:43;;;;;;;1.90;1.00;;;;;;;;;;6067168;23;20358;-83
2021/08/25 08:45:10;;;;;;;5.03;1.00;;;33.90;48.10;;;;;;6093665;23;20014;-84
2021/08/25 08:47:37;;;;;;;1.95;1.15;;;;;;;;;;6093353;23;20238;-83
2021/08/25 08:50:03;;;;;;;1.60;0.90;;;;;;;;;;6092953;23;20030;-82
2021/08/25 08:52:30;;;;;;;1.80;1.10;;;;;;;;;;6067528;23;20374;-84
2021/08/25 08:54:57;;;;;;;7.05;2.33;;;;;;;;;;6066712;23;20013;-84
2021/08/25 08:57:24;;;;;;;2.05;1.17;;;32.70;31.70;;;;;;6092667;23;20068;-84
2021/08/25 08:59:50;;;;;;;1.98;1.13;;;;;;;;;;6092417;23;20512;-83
2021/08/25 09:02:38;;;;;;;1.42;0.93;;;32.70;31.80;;;;;;6092368;23;20073;-87
2021/08/25 09:05:15;;;;;;;2.85;1.27;;;32.40;32.20;;;;;;6093192;23;20358;-87
2021/08/25 09:07:50;;;;;;;1.80;1.25;;;31.90;32.60;;;;;;6092110;23;20011;-88
2021/08/25 09:10:42;;;;;;;3.17;1.10;;;31.80;33.70;;;;;;6092114;23;20010;-87
2021/08/25 09:13:11;;;;;;;1.83;1.10;;;31.80;33.80;;;;;;6087213;23;20593;-88
2021/08/25 09:15:42;;;;;;;2.38;1.10;;;31.90;34.10;;;;;;6093331;23;20006;-85
2021/08/25 09:18:08;;;;;;;1.80;0.90;;;;;;;;;;6091366;23;20015;-87
2021/08/25 09:20:41;;;;;;;1.05;0.63;;;31.80;33.00;;;;;;6092827;23;20011;-86
2021/08/25 09:23:07;;;;;;;2.72;1.15;;;;;;;;;;6065759;23;20335;-87
2021/08/25 09:25:34;;;;;;;5.10;1.27;;;32.10;33.00;;;;;;6067543;23;20045;-86
2021/08/25 09:28:00;;;;;;;3.92;1.02;;;;;;;;;;6092126;23;20014;-85
2021/08/25 09:30:26;;;;;;;2.35;1.50;;;;;;;;;;6066809;23;20010;-86
2021/08/25 09:32:52;;;;;;;2.25;1.33;;;;;;;;;;6092913;23;20602;-84
2021/08/25 09:35:18;;;;;;;3.50;1.65;;;;;;;;;;6066376;23;20006;-84
2021/08/25 09:37:56;;;;;;;2.47;1.13;;;;;;;;;;6092194;23;20007;-83
2021/08/25 09:40:22;;;;;;;5.03;0.93;;;;;;;;;;6092018;23;20634;-84
2021/08/25 09:42:48;;;;;;;1.75;0.80;;;;;;;;;;6092021;23;20003;-84
2021/08/25 09:45:18;;;;;;;2.10;1.52;;;31.40;34.70;;;;;;6066607;23;20016;-84
2021/08/25 09:47:48;;;;;;;2.28;0.90;;;31.70;34.40;;;;;;6092377;23;20093;-87
2021/08/25 09:50:17;;;;;;;2.05;0.77;;;31.60;34.10;;;;;;6092139;23;20474;-84
2021/08/25 09:52:44;;;;;;;4.82;1.00;;;31.60;34.30;;;;;;6092224;23;20010;-84
2021/08/25 09:55:11;;;;;;;3.00;1.83;;;31.90;33.80;;;;;;6092353;23;20003;-84
2021/08/25 09:57:46;;;;;;;2.47;1.13;;;;;;;;;;6092256;23;20085;-83
2021/08/25 10:00:12;;;;;;;5.50;1.17;;;31.50;33.80;;;;;;6092627;23;20017;-86
2021/08/25 10:02:39;;;;;;;;;;;31.70;34.00;;;;;;6093413;23;20006;-84
2021/08/25 10:05:05;;;;;;;3.65;1.65;;;;;;;;;;6091538;23;19909;-85
2021/08/25 10:07:34;;;;;;;1.50;1.13;;;32.00;33.90;;;;;;6065245;23;20355;-83
2021/08/25 10:10:00;;;;;;;1.65;1.02;;;;;;;;;;6092093;23;20018;-84
2021/08/25 10:12:26;;;;;;;7.90;1.50;;;;;;;;;;6090317;23;20012;-83
2021/08/25 10:14:52;;;;;;;2.22;1.10;;;;;;;;;;6066741;23;20006;-84
2021/08/25 10:17:41;;;;;;;1.58;0.88;;;32.70;32.10;;;;;;6066145;23;20478;-84
2021/08/25 10:20:26;;;;;;;3.03;1.58;;;;;;;;;;6090515;23;20057;-84
2021/08/25 10:22:53;;;;;;;2.58;0.85;;;32.40;32.00;;;;;;6090175;23;20012;-84
2021/08/25 10:25:19;;;;;;;2.05;1.30;;;;;;;;;;6088961;23;20174;-84
2021/08/25 10:28:07;;;;;;;2.58;1.05;;;31.50;33.80;;;;;;6090339;23;20010;-84
2021/08/25 10:30:47;;;;;;;2.47;0.93;;;31.40;35.00;;;;;;6090833;23;20335;-84
2021/08/25 10:33:14;;;;;;;3.42;1.38;;;30.40;36.00;;;;;;6065207;23;20464;-84
2021/08/25 10:35:42;;;;;;;2.10;0.88;;;30.00;35.40;;;;;;6089864;23;20002;-83
2021/08/25 10:38:31;;;;;;;4.50;1.50;;;29.20;36.40;;;;;;6090592;23;20520;-83
2021/08/25 10:41:20;;;;;;;1.60;1.02;;;28.60;37.90;;;;;;6089319;23;20484;-83
2021/08/25 10:43:46;;;;;;;1.52;1.05;;;;;;;;;;6090286;23;20003;-85
2021/08/25 10:46:14;;;;;;;1.98;1.20;;;27.40;39.50;;;;;;6090850;23;20034;-83
2021/08/25 10:48:47;;;;;;;1.63;0.85;;;27.20;40.00;;;;;;6090373;23;20094;-83
2021/08/25 10:51:27;;;;;;;2.75;1.13;;;27.20;39.80;;;;;;6090410;23;20050;-83
2021/08/25 10:53:53;;;;;;;1.63;1.02;;;;;;;;;;6090680;23;19998;-84
2021/08/25 10:56:45;;;;;;;3.57;2.20;;;27.90;40.80;;;;;;6090191;23;20542;-83
2021/08/25 10:59:20;;;;;;;1.90;1.20;;;28.20;40.80;;;;;;6091262;23;20006;-83
2021/08/25 11:01:47;;;;;;;2.08;0.98;;;28.50;40.50;;;;;;6091009;23;20010;-83
2021/08/25 11:04:16;;;;;;;7.70;1.95;;;;;;;;;;6090708;23;20014;-83
2021/08/25 11:06:54;;;;;;;3.65;1.25;;;28.70;39.40;;;;;;6065153;23;20087;-83
2021/08/25 11:09:23;;;;;;;2.85;1.50;;;;;;;;;;6091424;23;20014;-75
2021/08/25 11:12:23;;;;;;;1.35;1.17;;;28.50;50.40;;;;;;6090328;23;20454;-75
2021/08/25 11:14:51;;;;;;;3.55;1.75;;;28.20;38.60;;;;;;6085421;23;20281;-85
2021/08/25 11:17:22;;;;;;;2.55;1.50;;;28.10;42.30;;;;;;6092604;23;20014;-86
2021/08/25 11:19:59;;;;;;;1.35;1.10;;;28.20;41.90;;;;;;6089943;23;20010;-88
2021/08/25 11:22:30;;;;;;;1.77;1.10;;;28.20;42.10;;;;;;6092910;23;20006;-87
2021/08/25 11:25:06;;;;;;;2.40;1.05;;;27.90;41.50;;;;;;6067098;23;20380;-87
2021/08/25 11:27:37;;;;;;;3.35;1.25;;;27.70;43.80;;;;;;6067003;23;20010;-86
2021/08/25 11:30:06;;;;;;;5.45;1.60;;;;;;;;;;6091868;23;20018;-86
2021/08/25 11:32:54;;;;;;;2.60;1.25;;;27.20;42.30;;;;;;6091753;23;20011;-86
2021/08/25 11:35:31;;;;;;;1.65;1.20;;;27.40;42.70;;;;;;6065107;23;20386;-85
2021/08/25 11:37:59;;;;;;;1.65;1.20;;;;;;;;;;6091959;23;20011;-85
2021/08/25 11:40:25;;;;;;;;;;;27.40;43.60;;;;;;6065830;23;20006;-87
2021/08/25 11:42:51;;;;;;;1.73;0.80;;;;;;;;;;6090422;23;19939;-88
2021/08/25 11:45:22;;;;;;;3.13;1.30;;;27.50;44.20;;;;;;6092356;23;19998;-86
2021/08/25 11:47:52;;;;;;;1.90;1.23;;;27.60;42.60;;;;;;6091894;23;20002;-86
2021/08/25 11:50:21;;;;;;;2.97;1.55;;;27.50;43.60;;;;;;6066529;23;20411;-87
2021/08/25 11:52:48;;;;;;;3.65;1.20;;;27.40;44.30;;;;;;6091993;23;20454;-87
2021/08/25 11:55:15;;;;;;;1.65;1.10;;;;;;;;;;6091758;23;20609;-86
2021/08/25 11:57:41;;;;;;;2.63;1.52;;;;;;;;;;6092170;23;20109;-87
2021/08/25 12:00:07;;;;;;;1.60;1.50;;;;;;;;;;6093690;23;20007;-86
2021/08/25 12:02:49;;;;;;;3.43;1.67;;;27.30;44.40;;;;;;6094122;23;20029;-89
2021/08/25 12:05:24;;;;;;;3.47;1.55;;;27.30;44.80;;;;;;6094494;23;20238;-87
2021/08/25 12:08:13;;;;;;;2.20;1.25;;;27.20;44.40;;;;;;6094618;23;20010;-87
2021/08/25 12:10:44;;;;;;;2.25;1.27;;;27.00;43.90;;;;;;6079067;23;20041;-87
2021/08/25 12:13:12;;;;;;;2.83;1.40;;;;;;;;;;6094432;23;20007;-87
2021/08/25 12:15:45;;;;;;;;;;;27.00;45.30;;;;;;6095351;23;20009;-87
2021/08/25 12:18:11;;;;;;;4.05;1.05;;;;;;;;;;6087931;23;20382;-87
2021/08/25 12:20:38;;;;;;;4.70;1.30;;;26.70;45.20;;;;;;6094114;23;20037;-85
2021/08/25 12:23:04;;;;;;;;;;;26.90;45.50;;;;;;6068248;23;20011;-86
2021/08/25 12:25:42;;;;;;;1.15;0.93;;;27.00;45.30;;;;;;6093775;23;19902;-86
2021/08/25 12:28:12;;;;;;;3.10;1.65;;;27.00;44.90;;;;;;6093380;23;20007;-85
2021/08/25 12:30:39;;;;;;;1.42;1.27;;;27.10;45.10;;;;;;6084381;23;20018;-86
2021/08/25 12:33:06;;;;;;;;;;;27.00;44.10;;;;;;6093396;23;20341;-85
2021/08/25 12:35:32;;;;;;;2.10;1.73;;;;;;;;;;6093619;23;19929;-86
2021/08/25 12:37:58;;;;;;;1.65;1.35;;;;;;;;;;6093556;23;20013;-85
2021/08/25 12:40:24;;;;;;;3.97;1.77;;;;;;;;;;6092082;23;20464;-85
2021/08/25 12:42:52;;;;;;;2.78;1.83;;;26.70;45.50;;;;;;6093431;23;20601;-86
2021/08/25 12:45:19;;;;;;;5.75;1.65;;;;;;;;;;6067869;23;20010;-88
2021/08/25 12:47:49;;;;;;;2.22;1.25;;;;;;;;;;6094197;23;20082;-88
2021/08/25 12:50:16;;;;;;;6.35;1.27;;;26.50;45.30;;;;;;6094624;23;20025;-88
2021/08/25 12:52:42;;;;;;;2.42;1.15;;;;;;;;;;6095047;23;20006;-88
2021/08/25 12:55:09;;;;;;;1.20;1.05;;;;;;;;;;6068281;23;20058;-85
2021/08/25 12:57:36;;;;;;;2.40;1.15;;;;;;;;;;6093824;23;20007;-87
2021/08/25 13:00:02;;;;;;;1.80;1.17;;;;;;;;;;6093697;23;20003;-86
2021/08/25 13:02:28;;;;;;;2.28;1.00;;;;;;;;;;6093590;23;20073;-86
2021/08/25 13:04:54;;;;;;;1.75;1.38;;;;;;;;;;6068148;23;20458;-87
2021/08/25 13:07:20;;;;;;;3.38;1.77;;;;;;;;;;6093751;23;20077;-86
2021/08/25 13:09:46;;;;;;;2.05;1.52;;;;;;;;;;6092686;23;20014;-87
2021/08/25 13:12:12;;;;;;;3.75;1.42;;;;;;;;;;6093339;23;20021;-87
2021/08/25 13:14:38;;;;;;;1.15;0.85;;;;;;;;;;6094947;23;20505;-89
2021/08/25 13:17:04;;;;;;;1.85;1.33;;;;;;;;;;6094294;23;20062;-87
2021/08/25 13:19:30;;;;;;;1.52;0.98;;;;;;;;;;6093796;23;20003;-88
2021/08/25 13:21:56;;;;;;;2.28;1.05;;;;;;;;;;6093416;23;20389;-87
2021/08/25 13:24:22;;;;;;;1.40;1.20;;;;;;;;;;6093216;23;20011;-87
2021/08/25 13:26:48;;;;;;;2.25;1.33;;;;;;;;;;6094124;23;20386;-87
2021/08/25 13:29:14;;;;;;;2.08;1.58;;;;;;;;;;6093535;23;20025;-88
2021/08/25 13:31:40;;;;;;;1.17;1.05;;;;;;;;;;6067512;23;20598;-88
2021/08/25 13:34:06;;;;;;;2.20;1.65;;;;;;;;;;6068453;23;20121;-89
2021/08/25 13:36:32;;;;;;;4.88;0.98;;;;;;;;;;6068017;23;20438;-86
2021/08/25 13:38:58;;;;;;;2.88;1.13;;;;;;;;;;6091770;23;20003;-87
2021/08/25 13:41:24;;;;;;;1.55;1.00;;;;;;;;;;6092639;23;20086;-85
2021/08/25 13:43:50;;;;;;;1.58;1.15;;;;;;;;;;6092415;23;20003;-87
2021/08/25 13:46:16;;;;;;;3.92;1.23;;;;;;;;;;6091865;23;20010;-85
2021/08/25 13:48:42;;;;;;;2.63;1.08;;;;;;;;;;6092358;23;20449;-85
2021/08/25 13:51:09;;;;;;;2.35;1.08;;;;;;;;;;6092877;23;20014;-85
2021/08/25 13:53:35;;;;;;;1.33;0.82;;;;;;;;;;6092920;23;20006;-86
2021/08/25 13:56:01;;;;;;;1.45;0.85;;;;;;;;;;6093234;23;20054;-86
2021/08/25 13:58:27;;;;;;;1.42;1.20;;;;;;;;;;6092239;23;20501;-86
2021/08/25 14:00:53;;;;;;;2.05;1.48;;;;;;;;;;6092905;23;20002;-88
2021/08/25 14:03:19;;;;;;;1.13;0.85;;;;;;;;;;6093787;23;20041;-87
2021/08/25 14:05:45;;;;;;;1.13;1.00;;;;;;;;;;6068001;23;20016;-87
2021/08/25 14:08:11;;;;;;;2.08;0.77;;;;;;;;;;6093333;23;20006;-88
2021/08/25 14:10:37;;;;;;;2.63;1.17;;;;;;;;;;6093047;23;20037;-87
2021/08/25 14:13:03;;;;;;;4.45;1.08;;;;;;;;;;6066929;23;20011;-87
2021/08/25 14:15:32;;;;;;;1.40;1.00;;;;;;;;;;6067283;23;20010;-86
2021/08/25 14:17:59;;;;;;;1.95;1.08;;;;;;;;;;6092512;23;20002;-88